sensor_id;sensor_type;location;lat;lon;timestamp;pressure;altitude;pressure_sealevel;temperature;humidity
61805;BME280;47725;47.912;7.356;2022-09-27T00:03:30;97718.46;;;12.65;71.34
61805;BME280;47725;47.912;7.356;2022-09-27T00:07:30;97714.74;;;12.69;71.70
61805;BME280;47725;47.912;7.356;2022-09-27T00:11:34;97710.49;;;12.68;72.24
61805;BME280;47725;47.912;7.356;2022-09-27T00:15:30;97707.25;;;12.67;72.52
61805;BME280;47725;47.912;7.356;2022-09-27T00:19:30;97703.31;;;12.69;72.05
61805;BME280;47725;47.912;7.356;2022-09-27T00:23:30;97701.15;;;12.72;72.16
61805;BME280;47725;47.912;7.356;2022-09-27T00:27:30;97701.54;;;12.74;71.92
61805;BME280;47725;47.912;7.356;2022-09-27T00:31:30;97704.58;;;12.78;71.78
61805;BME280;47725;47.912;7.356;2022-09-27T00:35:30;97707.35;;;12.81;71.68
61805;BME280;47725;47.912;7.356;2022-09-27T00:39:30;97712.17;;;12.84;71.78
61805;BME280;47725;47.912;7.356;2022-09-27T00:43:41;97718.09;;;12.88;71.68
61805;BME280;47725;47.912;7.356;2022-09-27T00:47:34;97723.85;;;12.91;71.68
61805;BME280;47725;47.912;7.356;2022-09-27T00:51:30;97732.79;;;12.91;71.91
61805;BME280;47725;47.912;7.356;2022-09-27T00:55:34;97741.61;;;12.93;71.57
61805;BME280;47725;47.912;7.356;2022-09-27T00:59:33;97749.67;;;12.97;71.20
61805;BME280;47725;47.912;7.356;2022-09-27T01:03:35;97755.33;;;13.02;70.86
61805;BME280;47725;47.912;7.356;2022-09-27T01:07:30;97759.50;;;13.09;70.72
61805;BME280;47725;47.912;7.356;2022-09-27T01:11:45;97764.04;;;13.14;70.60
61805;BME280;47725;47.912;7.356;2022-09-27T01:15:42;97768.41;;;13.17;70.63
61805;BME280;47725;47.912;7.356;2022-09-27T01:19:43;97772.24;;;13.18;70.62
61805;BME280;47725;47.912;7.356;2022-09-27T01:27:48;97779.35;;;13.23;70.43
61805;BME280;47725;47.912;7.356;2022-09-27T01:39:35;97789.69;;;13.18;68.62
61805;BME280;47725;47.912;7.356;2022-09-27T01:43:35;97792.91;;;13.14;68.67
61805;BME280;47725;47.912;7.356;2022-09-27T01:47:41;97794.16;;;13.12;68.90
61805;BME280;47725;47.912;7.356;2022-09-27T01:51:31;97794.72;;;13.11;68.61
61805;BME280;47725;47.912;7.356;2022-09-27T01:55:31;97796.37;;;13.11;68.17
61805;BME280;47725;47.912;7.356;2022-09-27T01:59:31;97797.55;;;13.06;68.21
61805;BME280;47725;47.912;7.356;2022-09-27T02:03:32;97798.14;;;13.03;68.40
61805;BME280;47725;47.912;7.356;2022-09-27T02:07:40;97800.95;;;13.00;68.11
61805;BME280;47725;47.912;7.356;2022-09-27T02:11:30;97802.93;;;12.98;67.93
61805;BME280;47725;47.912;7.356;2022-09-27T02:15:31;97804.86;;;12.97;68.06
61805;BME280;47725;47.912;7.356;2022-09-27T02:19:37;97805.50;;;12.97;68.13
61805;BME280;47725;47.912;7.356;2022-09-27T02:23:40;97806.34;;;12.96;68.64
61805;BME280;47725;47.912;7.356;2022-09-27T02:27:31;97805.85;;;12.96;68.90
61805;BME280;47725;47.912;7.356;2022-09-27T02:31:30;97808.95;;;12.96;69.17
61805;BME280;47725;47.912;7.356;2022-09-27T02:35:31;97811.16;;;12.95;69.33
61805;BME280;47725;47.912;7.356;2022-09-27T02:39:30;97812.36;;;12.96;69.30
61805;BME280;47725;47.912;7.356;2022-09-27T02:43:30;97813.92;;;12.98;69.20
61805;BME280;47725;47.912;7.356;2022-09-27T02:47:34;97816.72;;;12.98;69.32
61805;BME280;47725;47.912;7.356;2022-09-27T02:55:39;97821.51;;;12.98;69.24
61805;BME280;47725;47.912;7.356;2022-09-27T03:03:40;97826.61;;;12.95;69.64
61805;BME280;47725;47.912;7.356;2022-09-27T03:07:30;97828.17;;;12.96;69.46
61805;BME280;47725;47.912;7.356;2022-09-27T03:11:30;97830.14;;;12.97;69.36
61805;BME280;47725;47.912;7.356;2022-09-27T03:15:30;97834.90;;;13.00;69.06
61805;BME280;47725;47.912;7.356;2022-09-27T03:19:30;97839.93;;;13.01;69.17
61805;BME280;47725;47.912;7.356;2022-09-27T03:23:30;97846.06;;;13.01;69.01
61805;BME280;47725;47.912;7.356;2022-09-27T03:27:30;97852.39;;;13.02;68.71
61805;BME280;47725;47.912;7.356;2022-09-27T03:31:30;97856.51;;;13.01;68.66
61805;BME280;47725;47.912;7.356;2022-09-27T03:35:30;97858.54;;;13.00;68.27
61805;BME280;47725;47.912;7.356;2022-09-27T03:39:30;97861.52;;;12.96;67.12
61805;BME280;47725;47.912;7.356;2022-09-27T03:43:30;97864.04;;;12.91;66.43
61805;BME280;47725;47.912;7.356;2022-09-27T03:47:30;97867.77;;;12.84;66.18
61805;BME280;47725;47.912;7.356;2022-09-27T03:51:30;97872.28;;;12.79;65.95
61805;BME280;47725;47.912;7.356;2022-09-27T03:55:30;97877.64;;;12.76;66.63
61805;BME280;47725;47.912;7.356;2022-09-27T03:59:30;97879.93;;;12.73;66.52
61805;BME280;47725;47.912;7.356;2022-09-27T04:03:30;97880.70;;;12.71;66.20
61805;BME280;47725;47.912;7.356;2022-09-27T04:07:30;97880.96;;;12.67;66.66
61805;BME280;47725;47.912;7.356;2022-09-27T04:11:30;97881.99;;;12.64;66.18
61805;BME280;47725;47.912;7.356;2022-09-27T04:15:30;97883.82;;;12.61;66.38
61805;BME280;47725;47.912;7.356;2022-09-27T04:19:30;97886.27;;;12.60;66.35
61805;BME280;47725;47.912;7.356;2022-09-27T04:23:30;97886.17;;;12.59;65.61
61805;BME280;47725;47.912;7.356;2022-09-27T04:27:30;97886.97;;;12.57;65.81
61805;BME280;47725;47.912;7.356;2022-09-27T04:31:30;97891.88;;;12.55;65.93
61805;BME280;47725;47.912;7.356;2022-09-27T04:35:30;97896.26;;;12.52;66.46
61805;BME280;47725;47.912;7.356;2022-09-27T04:39:30;97899.68;;;12.50;66.41
61805;BME280;47725;47.912;7.356;2022-09-27T04:43:30;97900.73;;;12.49;65.20
61805;BME280;47725;47.912;7.356;2022-09-27T04:47:30;97904.44;;;12.47;65.55
61805;BME280;47725;47.912;7.356;2022-09-27T04:51:30;97909.58;;;12.44;65.80
61805;BME280;47725;47.912;7.356;2022-09-27T04:55:30;97917.19;;;12.42;66.19
61805;BME280;47725;47.912;7.356;2022-09-27T04:59:30;97923.14;;;12.40;66.07
61805;BME280;47725;47.912;7.356;2022-09-27T05:03:30;97927.06;;;12.35;66.61
61805;BME280;47725;47.912;7.356;2022-09-27T05:07:32;97931.02;;;12.31;67.03
61805;BME280;47725;47.912;7.356;2022-09-27T05:11:30;97934.75;;;12.25;66.49
61805;BME280;47725;47.912;7.356;2022-09-27T05:15:30;97939.84;;;12.22;66.57
61805;BME280;47725;47.912;7.356;2022-09-27T05:19:30;97945.47;;;12.21;66.14
61805;BME280;47725;47.912;7.356;2022-09-27T05:23:30;97949.96;;;12.23;66.17
61805;BME280;47725;47.912;7.356;2022-09-27T05:27:30;97953.38;;;12.23;66.16
61805;BME280;47725;47.912;7.356;2022-09-27T05:31:30;97958.81;;;12.22;66.22
61805;BME280;47725;47.912;7.356;2022-09-27T05:35:30;97965.34;;;12.21;65.98
61805;BME280;47725;47.912;7.356;2022-09-27T05:39:30;97972.92;;;12.18;65.91
61805;BME280;47725;47.912;7.356;2022-09-27T05:43:30;97979.11;;;12.16;66.01
61805;BME280;47725;47.912;7.356;2022-09-27T05:47:30;97982.93;;;12.15;65.82
61805;BME280;47725;47.912;7.356;2022-09-27T05:51:30;97987.81;;;12.15;65.94
61805;BME280;47725;47.912;7.356;2022-09-27T05:55:30;97992.05;;;12.17;66.18
61805;BME280;47725;47.912;7.356;2022-09-27T05:59:30;97996.88;;;12.19;66.10
61805;BME280;47725;47.912;7.356;2022-09-27T06:03:30;98001.81;;;12.21;66.19
61805;BME280;47725;47.912;7.356;2022-09-27T06:07:30;98007.17;;;12.23;65.99
61805;BME280;47725;47.912;7.356;2022-09-27T06:11:30;98011.69;;;12.24;66.14
61805;BME280;47725;47.912;7.356;2022-09-27T06:15:30;98012.25;;;12.24;66.07
61805;BME280;47725;47.912;7.356;2022-09-27T06:19:29;98013.92;;;12.23;66.05
61805;BME280;47725;47.912;7.356;2022-09-27T06:23:30;98016.43;;;12.21;65.98
61805;BME280;47725;47.912;7.356;2022-09-27T06:27:30;98016.91;;;12.19;66.00
61805;BME280;47725;47.912;7.356;2022-09-27T06:31:29;98015.70;;;12.16;65.90
61805;BME280;47725;47.912;7.356;2022-09-27T06:35:29;98015.16;;;12.14;65.89
61805;BME280;47725;47.912;7.356;2022-09-27T06:39:29;98018.56;;;12.12;65.79
61805;BME280;47725;47.912;7.356;2022-09-27T06:43:29;98022.14;;;12.10;65.74
61805;BME280;47725;47.912;7.356;2022-09-27T06:47:33;98026.12;;;12.10;66.21
61805;BME280;47725;47.912;7.356;2022-09-27T06:51:29;98029.61;;;12.08;66.39
61805;BME280;47725;47.912;7.356;2022-09-27T06:55:30;98034.08;;;12.08;66.20
61805;BME280;47725;47.912;7.356;2022-09-27T06:59:29;98038.98;;;12.09;66.04
61805;BME280;47725;47.912;7.356;2022-09-27T07:03:29;98043.25;;;12.12;66.12
61805;BME280;47725;47.912;7.356;2022-09-27T07:07:29;98044.15;;;12.17;65.20
61805;BME280;47725;47.912;7.356;2022-09-27T07:11:29;98045.43;;;12.22;64.68
61805;BME280;47725;47.912;7.356;2022-09-27T07:15:30;98047.94;;;12.27;64.74
61805;BME280;47725;47.912;7.356;2022-09-27T07:19:29;98049.77;;;12.30;64.70
61805;BME280;47725;47.912;7.356;2022-09-27T07:23:29;98051.56;;;12.31;63.87
61805;BME280;47725;47.912;7.356;2022-09-27T07:27:30;98054.41;;;12.32;62.92
61805;BME280;47725;47.912;7.356;2022-09-27T07:31:29;98056.17;;;12.33;63.18
61805;BME280;47725;47.912;7.356;2022-09-27T07:35:29;98057.87;;;12.36;62.74
61805;BME280;47725;47.912;7.356;2022-09-27T07:39:30;98060.92;;;12.37;62.36
61805;BME280;47725;47.912;7.356;2022-09-27T07:43:29;98066.46;;;12.37;62.06
61805;BME280;47725;47.912;7.356;2022-09-27T07:47:29;98070.59;;;12.35;62.82
61805;BME280;47725;47.912;7.356;2022-09-27T07:51:29;98075.31;;;12.35;63.23
61805;BME280;47725;47.912;7.356;2022-09-27T07:55:29;98079.96;;;12.36;63.91
61805;BME280;47725;47.912;7.356;2022-09-27T07:59:29;98084.72;;;12.34;64.79
61805;BME280;47725;47.912;7.356;2022-09-27T08:03:29;98089.47;;;12.34;65.05
61805;BME280;47725;47.912;7.356;2022-09-27T08:07:29;98094.30;;;12.37;64.93
61805;BME280;47725;47.912;7.356;2022-09-27T08:11:29;98099.40;;;12.41;65.67
61805;BME280;47725;47.912;7.356;2022-09-27T08:15:30;98104.55;;;12.45;65.45
61805;BME280;47725;47.912;7.356;2022-09-27T08:19:29;98108.12;;;12.49;65.91
61805;BME280;47725;47.912;7.356;2022-09-27T08:23:29;98111.14;;;12.54;66.31
61805;BME280;47725;47.912;7.356;2022-09-27T08:27:29;98113.58;;;12.60;66.11
61805;BME280;47725;47.912;7.356;2022-09-27T08:31:29;98115.95;;;12.67;66.45
61805;BME280;47725;47.912;7.356;2022-09-27T08:35:30;98116.07;;;12.74;66.51
61805;BME280;47725;47.912;7.356;2022-09-27T08:39:29;98115.66;;;12.82;65.96
61805;BME280;47725;47.912;7.356;2022-09-27T08:47:34;98112.31;;;13.00;65.83
61805;BME280;47725;47.912;7.356;2022-09-27T08:51:29;98112.04;;;13.07;65.67
61805;BME280;47725;47.912;7.356;2022-09-27T08:55:36;98110.86;;;13.13;65.86
61805;BME280;47725;47.912;7.356;2022-09-27T08:59:39;98110.50;;;13.18;65.94
61805;BME280;47725;47.912;7.356;2022-09-27T09:03:30;98110.58;;;13.20;66.08
61805;BME280;47725;47.912;7.356;2022-09-27T09:19:42;98113.14;;;13.71;66.01
61805;BME280;47725;47.912;7.356;2022-09-27T09:23:39;98112.61;;;13.97;64.47
61805;BME280;47725;47.912;7.356;2022-09-27T09:27:41;98111.58;;;14.16;64.34
61805;BME280;47725;47.912;7.356;2022-09-27T09:31:49;98110.39;;;14.25;63.89
61805;BME280;47725;47.912;7.356;2022-09-27T09:35:31;98108.31;;;14.33;63.97
61805;BME280;47725;47.912;7.356;2022-09-27T09:39:40;98106.52;;;14.34;62.87
61805;BME280;47725;47.912;7.356;2022-09-27T09:43:37;98103.56;;;14.27;63.06
61805;BME280;47725;47.912;7.356;2022-09-27T09:47:36;98101.67;;;14.23;63.61
61805;BME280;47725;47.912;7.356;2022-09-27T09:51:33;98100.19;;;14.25;63.86
61805;BME280;47725;47.912;7.356;2022-09-27T09:55:33;98095.09;;;14.37;62.17
61805;BME280;47725;47.912;7.356;2022-09-27T09:59:48;98089.94;;;14.54;62.40
61805;BME280;47725;47.912;7.356;2022-09-27T10:03:29;98083.32;;;14.73;60.68
61805;BME280;47725;47.912;7.356;2022-09-27T10:07:29;98079.61;;;14.89;60.35
61805;BME280;47725;47.912;7.356;2022-09-27T10:11:36;98076.34;;;15.00;60.89
61805;BME280;47725;47.912;7.356;2022-09-27T10:15:29;98072.42;;;15.11;59.10
61805;BME280;47725;47.912;7.356;2022-09-27T10:19:30;98069.61;;;15.17;59.39
61805;BME280;47725;47.912;7.356;2022-09-27T10:23:29;98067.49;;;15.25;59.92
61805;BME280;47725;47.912;7.356;2022-09-27T10:27:48;98066.01;;;15.30;59.09
61805;BME280;47725;47.912;7.356;2022-09-27T10:31:34;98063.14;;;15.32;59.56
61805;BME280;47725;47.912;7.356;2022-09-27T10:35:32;98058.97;;;15.33;59.64
61805;BME280;47725;47.912;7.356;2022-09-27T10:39:29;98055.35;;;15.36;56.61
61805;BME280;47725;47.912;7.356;2022-09-27T10:43:35;98052.00;;;15.38;57.56
61805;BME280;47725;47.912;7.356;2022-09-27T10:47:29;98048.39;;;15.41;57.47
61805;BME280;47725;47.912;7.356;2022-09-27T10:51:29;98044.04;;;15.45;57.13
61805;BME280;47725;47.912;7.356;2022-09-27T10:55:31;98040.44;;;15.50;57.69
61805;BME280;47725;47.912;7.356;2022-09-27T10:59:30;98038.69;;;15.54;58.82
61805;BME280;47725;47.912;7.356;2022-09-27T11:03:30;98036.78;;;15.61;56.28
61805;BME280;47725;47.912;7.356;2022-09-27T11:07:29;98037.44;;;15.66;56.94
61805;BME280;47725;47.912;7.356;2022-09-27T11:11:29;98037.41;;;15.70;57.30
61805;BME280;47725;47.912;7.356;2022-09-27T11:15:29;98038.12;;;15.75;58.34
61805;BME280;47725;47.912;7.356;2022-09-27T11:23:35;98044.48;;;15.68;58.44
61805;BME280;47725;47.912;7.356;2022-09-27T11:31:34;98048.32;;;15.48;60.76
61805;BME280;47725;47.912;7.356;2022-09-27T11:39:39;98048.13;;;15.25;62.00
61805;BME280;47725;47.912;7.356;2022-09-27T11:51:32;98039.95;;;15.22;61.98
61805;BME280;47725;47.912;7.356;2022-09-27T11:55:35;98036.25;;;15.29;60.42
61805;BME280;47725;47.912;7.356;2022-09-27T12:07:47;98020.25;;;15.63;55.81
61805;BME280;47725;47.912;7.356;2022-09-27T12:11:35;98017.43;;;15.74;56.49
61805;BME280;47725;47.912;7.356;2022-09-27T12:15:31;98016.60;;;15.82;55.91
61805;BME280;47725;47.912;7.356;2022-09-27T12:19:31;98016.09;;;15.86;55.76
61805;BME280;47725;47.912;7.356;2022-09-27T12:31:30;98018.48;;;15.73;57.79
61805;BME280;47725;47.912;7.356;2022-09-27T12:39:36;98022.04;;;15.60;58.39
61805;BME280;47725;47.912;7.356;2022-09-27T12:43:29;98025.36;;;15.53;58.79
61805;BME280;47725;47.912;7.356;2022-09-27T12:51:34;98031.05;;;15.40;59.46
61805;BME280;47725;47.912;7.356;2022-09-27T13:11:45;98047.86;;;15.17;60.34
61805;BME280;47725;47.912;7.356;2022-09-27T13:15:32;98052.56;;;15.07;61.39
61805;BME280;47725;47.912;7.356;2022-09-27T13:19:39;98054.83;;;15.00;61.20
61805;BME280;47725;47.912;7.356;2022-09-27T13:27:36;98057.05;;;14.86;61.67
61805;BME280;47725;47.912;7.356;2022-09-27T13:35:29;98062.54;;;14.82;61.97
61805;BME280;47725;47.912;7.356;2022-09-27T13:39:29;98064.73;;;14.82;62.55
61805;BME280;47725;47.912;7.356;2022-09-27T13:47:33;98056.75;;;14.81;62.28
61805;BME280;47725;47.912;7.356;2022-09-27T13:55:42;98045.20;;;14.79;61.62
61805;BME280;47725;47.912;7.356;2022-09-27T13:59:38;98038.65;;;14.77;62.16
61805;BME280;47725;47.912;7.356;2022-09-27T14:03:29;98032.22;;;14.75;62.08
61805;BME280;47725;47.912;7.356;2022-09-27T14:07:33;98026.34;;;14.75;62.52
61805;BME280;47725;47.912;7.356;2022-09-27T14:11:30;98019.48;;;14.74;62.48
61805;BME280;47725;47.912;7.356;2022-09-27T14:15:30;98015.88;;;14.71;62.98
61805;BME280;47725;47.912;7.356;2022-09-27T14:19:29;98012.90;;;14.71;63.06
61805;BME280;47725;47.912;7.356;2022-09-27T14:23:29;98010.44;;;14.74;62.89
61805;BME280;47725;47.912;7.356;2022-09-27T14:27:33;98008.34;;;14.79;63.07
61805;BME280;47725;47.912;7.356;2022-09-27T14:31:29;98008.56;;;14.83;62.88
61805;BME280;47725;47.912;7.356;2022-09-27T14:35:29;98007.42;;;14.87;63.26
61805;BME280;47725;47.912;7.356;2022-09-27T14:39:32;98006.92;;;14.90;62.64
61805;BME280;47725;47.912;7.356;2022-09-27T14:43:29;98005.13;;;14.93;62.79
61805;BME280;47725;47.912;7.356;2022-09-27T14:47:29;98002.53;;;14.95;62.06
61805;BME280;47725;47.912;7.356;2022-09-27T14:51:29;97997.61;;;14.95;60.47
61805;BME280;47725;47.912;7.356;2022-09-27T14:55:29;97994.25;;;14.93;60.43
61805;BME280;47725;47.912;7.356;2022-09-27T14:59:32;97993.43;;;14.91;60.71
61805;BME280;47725;47.912;7.356;2022-09-27T15:03:29;97994.50;;;14.91;60.49
61805;BME280;47725;47.912;7.356;2022-09-27T15:07:29;97996.37;;;14.86;58.29
61805;BME280;47725;47.912;7.356;2022-09-27T15:11:29;97999.42;;;14.79;57.69
61805;BME280;47725;47.912;7.356;2022-09-27T15:15:32;98000.48;;;14.73;56.96
61805;BME280;47725;47.912;7.356;2022-09-27T15:19:29;98001.89;;;14.69;58.27
61805;BME280;47725;47.912;7.356;2022-09-27T15:23:30;98002.86;;;14.65;58.20
61805;BME280;47725;47.912;7.356;2022-09-27T15:27:29;98003.67;;;14.62;58.14
61805;BME280;47725;47.912;7.356;2022-09-27T15:31:30;98005.86;;;14.59;58.95
61805;BME280;47725;47.912;7.356;2022-09-27T15:35:30;98006.17;;;14.55;57.75
61805;BME280;47725;47.912;7.356;2022-09-27T15:39:32;98009.02;;;14.54;57.56
61805;BME280;47725;47.912;7.356;2022-09-27T15:51:41;98015.27;;;14.44;57.96
61805;BME280;47725;47.912;7.356;2022-09-27T15:55:29;98017.47;;;14.40;57.37
61805;BME280;47725;47.912;7.356;2022-09-27T15:59:30;98020.31;;;14.36;57.73
61805;BME280;47725;47.912;7.356;2022-09-27T16:03:29;98021.04;;;14.33;56.66
61805;BME280;47725;47.912;7.356;2022-09-27T16:07:29;98022.75;;;14.30;56.61
61805;BME280;47725;47.912;7.356;2022-09-27T16:11:29;98025.52;;;14.27;57.58
61805;BME280;47725;47.912;7.356;2022-09-27T16:15:29;98028.98;;;14.26;58.28
61805;BME280;47725;47.912;7.356;2022-09-27T16:19:29;98030.94;;;14.26;58.76
61805;BME280;47725;47.912;7.356;2022-09-27T16:23:29;98031.39;;;14.25;58.71
61805;BME280;47725;47.912;7.356;2022-09-27T16:27:29;98033.92;;;14.23;59.68
61805;BME280;47725;47.912;7.356;2022-09-27T16:31:29;98034.92;;;14.21;59.40
61805;BME280;47725;47.912;7.356;2022-09-27T16:35:29;98035.88;;;14.17;59.91
61805;BME280;47725;47.912;7.356;2022-09-27T16:39:29;98038.19;;;14.15;60.09
61805;BME280;47725;47.912;7.356;2022-09-27T16:43:29;98038.89;;;14.12;60.85
61805;BME280;47725;47.912;7.356;2022-09-27T16:47:29;98040.67;;;14.09;61.16
61805;BME280;47725;47.912;7.356;2022-09-27T16:51:29;98042.58;;;14.06;61.49
61805;BME280;47725;47.912;7.356;2022-09-27T16:55:29;98043.95;;;14.02;61.96
61805;BME280;47725;47.912;7.356;2022-09-27T16:59:29;98043.63;;;14.00;62.26
61805;BME280;47725;47.912;7.356;2022-09-27T17:03:29;98044.47;;;13.95;62.85
61805;BME280;47725;47.912;7.356;2022-09-27T17:07:29;98047.52;;;13.91;63.15
61805;BME280;47725;47.912;7.356;2022-09-27T17:11:29;98050.50;;;13.87;63.32
61805;BME280;47725;47.912;7.356;2022-09-27T17:15:29;98052.04;;;13.85;63.22
61805;BME280;47725;47.912;7.356;2022-09-27T17:19:29;98054.24;;;13.84;63.14
61805;BME280;47725;47.912;7.356;2022-09-27T17:23:29;98055.44;;;13.82;63.08
61805;BME280;47725;47.912;7.356;2022-09-27T17:27:29;98054.64;;;13.76;62.77
61805;BME280;47725;47.912;7.356;2022-09-27T17:31:29;98053.80;;;13.73;62.76
61805;BME280;47725;47.912;7.356;2022-09-27T17:35:29;98052.87;;;13.71;63.12
61805;BME280;47725;47.912;7.356;2022-09-27T17:39:29;98051.57;;;13.68;63.36
61805;BME280;47725;47.912;7.356;2022-09-27T17:43:29;98049.27;;;13.68;63.33
61805;BME280;47725;47.912;7.356;2022-09-27T17:47:29;98045.04;;;13.66;63.59
61805;BME280;47725;47.912;7.356;2022-09-27T17:51:29;98042.08;;;13.62;63.58
61805;BME280;47725;47.912;7.356;2022-09-27T17:55:29;98040.09;;;13.58;63.78
61805;BME280;47725;47.912;7.356;2022-09-27T17:59:29;98039.51;;;13.56;63.92
61805;BME280;47725;47.912;7.356;2022-09-27T18:03:29;98038.21;;;13.50;64.71
61805;BME280;47725;47.912;7.356;2022-09-27T18:07:29;98038.98;;;13.45;63.61
61805;BME280;47725;47.912;7.356;2022-09-27T18:11:29;98040.83;;;13.42;63.81
61805;BME280;47725;47.912;7.356;2022-09-27T18:15:29;98042.60;;;13.37;64.70
61805;BME280;47725;47.912;7.356;2022-09-27T18:19:29;98042.74;;;13.34;64.95
61805;BME280;47725;47.912;7.356;2022-09-27T18:23:29;98042.54;;;13.31;65.11
61805;BME280;47725;47.912;7.356;2022-09-27T18:27:29;98043.36;;;13.30;65.34
61805;BME280;47725;47.912;7.356;2022-09-27T18:31:29;98043.76;;;13.28;65.42
61805;BME280;47725;47.912;7.356;2022-09-27T18:35:29;98042.60;;;13.28;65.18
61805;BME280;47725;47.912;7.356;2022-09-27T18:39:29;98042.85;;;13.29;64.89
61805;BME280;47725;47.912;7.356;2022-09-27T18:43:29;98041.49;;;13.31;65.03
61805;BME280;47725;47.912;7.356;2022-09-27T18:47:29;98042.03;;;13.33;64.83
61805;BME280;47725;47.912;7.356;2022-09-27T18:51:29;98043.97;;;13.34;64.94
61805;BME280;47725;47.912;7.356;2022-09-27T18:55:29;98046.32;;;13.34;65.20
61805;BME280;47725;47.912;7.356;2022-09-27T18:59:29;98049.02;;;13.32;65.59
61805;BME280;47725;47.912;7.356;2022-09-27T19:03:29;98051.05;;;13.30;65.50
61805;BME280;47725;47.912;7.356;2022-09-27T19:07:29;98049.97;;;13.30;65.50
61805;BME280;47725;47.912;7.356;2022-09-27T19:11:29;98048.18;;;13.30;65.71
61805;BME280;47725;47.912;7.356;2022-09-27T19:15:28;98046.60;;;13.29;65.68
61805;BME280;47725;47.912;7.356;2022-09-27T19:19:28;98044.67;;;13.29;65.70
61805;BME280;47725;47.912;7.356;2022-09-27T19:23:28;98042.21;;;13.27;65.81
61805;BME280;47725;47.912;7.356;2022-09-27T19:27:29;98042.83;;;13.25;65.75
61805;BME280;47725;47.912;7.356;2022-09-27T19:31:29;98040.30;;;13.22;65.96
61805;BME280;47725;47.912;7.356;2022-09-27T19:35:28;98040.34;;;13.19;66.05
61805;BME280;47725;47.912;7.356;2022-09-27T19:39:28;98042.52;;;13.15;66.01
61805;BME280;47725;47.912;7.356;2022-09-27T19:43:28;98042.86;;;13.12;66.21
61805;BME280;47725;47.912;7.356;2022-09-27T19:47:28;98042.35;;;13.09;66.45
61805;BME280;47725;47.912;7.356;2022-09-27T19:51:28;98041.97;;;13.06;66.33
61805;BME280;47725;47.912;7.356;2022-09-27T19:55:28;98040.69;;;13.04;66.65
61805;BME280;47725;47.912;7.356;2022-09-27T19:59:29;98038.55;;;13.02;67.14
61805;BME280;47725;47.912;7.356;2022-09-27T20:03:28;98033.22;;;13.02;67.27
61805;BME280;47725;47.912;7.356;2022-09-27T20:07:28;98028.27;;;13.00;67.92
61805;BME280;47725;47.912;7.356;2022-09-27T20:11:29;98023.08;;;12.99;67.91
61805;BME280;47725;47.912;7.356;2022-09-27T20:15:28;98018.36;;;12.99;67.89
61805;BME280;47725;47.912;7.356;2022-09-27T20:19:28;98014.33;;;12.98;68.47
61805;BME280;47725;47.912;7.356;2022-09-27T20:23:29;98011.13;;;12.97;68.66
61805;BME280;47725;47.912;7.356;2022-09-27T20:27:28;98008.47;;;12.94;68.81
61805;BME280;47725;47.912;7.356;2022-09-27T20:31:30;98005.11;;;12.92;68.85
61805;BME280;47725;47.912;7.356;2022-09-27T20:35:28;98000.87;;;12.91;69.17
61805;BME280;47725;47.912;7.356;2022-09-27T20:39:28;97998.27;;;12.90;69.45
61805;BME280;47725;47.912;7.356;2022-09-27T20:43:28;97995.73;;;12.88;69.66
61805;BME280;47725;47.912;7.356;2022-09-27T20:47:28;97994.26;;;12.88;69.74
61805;BME280;47725;47.912;7.356;2022-09-27T20:51:29;97990.09;;;12.88;69.76
61805;BME280;47725;47.912;7.356;2022-09-27T20:55:28;97983.03;;;12.87;69.70
61805;BME280;47725;47.912;7.356;2022-09-27T20:59:28;97975.51;;;12.88;69.73
61805;BME280;47725;47.912;7.356;2022-09-27T21:03:28;97969.97;;;12.87;69.96
61805;BME280;47725;47.912;7.356;2022-09-27T21:07:28;97962.89;;;12.87;69.80
61805;BME280;47725;47.912;7.356;2022-09-27T21:11:28;97955.38;;;12.89;69.59
61805;BME280;47725;47.912;7.356;2022-09-27T21:15:30;97947.05;;;12.89;69.57
61805;BME280;47725;47.912;7.356;2022-09-27T21:19:28;97940.33;;;12.89;69.46
61805;BME280;47725;47.912;7.356;2022-09-27T21:23:29;97933.80;;;12.87;69.42
61805;BME280;47725;47.912;7.356;2022-09-27T21:27:28;97929.22;;;12.86;69.70
61805;BME280;47725;47.912;7.356;2022-09-27T21:31:29;97923.72;;;12.85;69.61
61805;BME280;47725;47.912;7.356;2022-09-27T21:35:28;97918.20;;;12.84;69.87
61805;BME280;47725;47.912;7.356;2022-09-27T21:39:28;97914.60;;;12.82;70.23
61805;BME280;47725;47.912;7.356;2022-09-27T21:43:29;97912.30;;;12.82;70.06
61805;BME280;47725;47.912;7.356;2022-09-27T21:47:28;97905.62;;;12.82;70.13
61805;BME280;47725;47.912;7.356;2022-09-27T21:51:32;97903.01;;;12.82;70.11
61805;BME280;47725;47.912;7.356;2022-09-27T21:55:28;97901.62;;;12.79;70.61
61805;BME280;47725;47.912;7.356;2022-09-27T21:59:28;97899.39;;;12.77;71.09
61805;BME280;47725;47.912;7.356;2022-09-27T22:03:28;97895.73;;;12.73;71.43
61805;BME280;47725;47.912;7.356;2022-09-27T22:07:28;97892.55;;;12.70;71.57
61805;BME280;47725;47.912;7.356;2022-09-27T22:11:29;97889.01;;;12.70;71.43
61805;BME280;47725;47.912;7.356;2022-09-27T22:15:28;97882.67;;;12.68;71.37
61805;BME280;47725;47.912;7.356;2022-09-27T22:19:28;97877.73;;;12.65;71.81
61805;BME280;47725;47.912;7.356;2022-09-27T22:23:28;97872.09;;;12.61;72.15
61805;BME280;47725;47.912;7.356;2022-09-27T22:27:28;97863.97;;;12.58;72.03
61805;BME280;47725;47.912;7.356;2022-09-27T22:31:28;97856.94;;;12.55;72.14
61805;BME280;47725;47.912;7.356;2022-09-27T22:35:28;97849.33;;;12.53;72.14
61805;BME280;47725;47.912;7.356;2022-09-27T22:39:28;97842.70;;;12.51;72.34
61805;BME280;47725;47.912;7.356;2022-09-27T22:43:28;97838.71;;;12.49;72.15
61805;BME280;47725;47.912;7.356;2022-09-27T22:47:28;97833.26;;;12.50;72.04
61805;BME280;47725;47.912;7.356;2022-09-27T22:51:28;97827.47;;;12.51;71.83
61805;BME280;47725;47.912;7.356;2022-09-27T22:55:28;97824.38;;;12.51;71.81
61805;BME280;47725;47.912;7.356;2022-09-27T22:59:28;97820.39;;;12.50;71.92
61805;BME280;47725;47.912;7.356;2022-09-27T23:03:28;97815.98;;;12.48;72.00
61805;BME280;47725;47.912;7.356;2022-09-27T23:07:28;97813.87;;;12.47;72.00
61805;BME280;47725;47.912;7.356;2022-09-27T23:11:28;97811.25;;;12.48;71.88